createdAt,value
2022-09-26T00:01:06.959Z,16.02
2022-09-26T00:03:34.336Z,15.98
2022-09-26T00:06:08.279Z,15.99
2022-09-26T00:08:36.022Z,16.00
2022-09-26T00:11:04.266Z,15.95
2022-09-26T00:13:31.515Z,15.97
2022-09-26T00:15:58.589Z,16.00
2022-09-26T00:18:25.425Z,15.95
2022-09-26T00:20:52.390Z,15.97
2022-09-26T00:23:19.498Z,15.97
2022-09-26T00:25:47.320Z,15.95
2022-09-26T00:28:14.469Z,15.92
2022-09-26T00:30:41.818Z,15.93
2022-09-26T00:33:08.652Z,15.92
2022-09-26T00:35:35.428Z,15.90
2022-09-26T00:38:02.608Z,15.90
2022-09-26T00:40:30.678Z,15.89
2022-09-26T00:42:58.278Z,15.89
2022-09-26T00:45:27.554Z,15.87
2022-09-26T00:47:59.536Z,15.88
2022-09-26T00:50:31.120Z,15.86
2022-09-26T00:53:01.216Z,15.85
2022-09-26T00:55:30.830Z,15.86
2022-09-26T00:58:04.549Z,15.85
2022-09-26T01:00:31.892Z,15.83
2022-09-26T01:02:58.729Z,15.77
2022-09-26T01:05:25.583Z,15.80
2022-09-26T01:07:53.092Z,15.83
2022-09-26T01:10:19.976Z,15.81
2022-09-26T01:12:46.915Z,15.82
2022-09-26T01:15:13.998Z,15.80
2022-09-26T01:17:42.048Z,15.82
2022-09-26T01:20:23.398Z,15.81
2022-09-26T01:23:18.546Z,15.77
2022-09-26T01:25:58.079Z,15.80
2022-09-26T01:28:53.231Z,15.76
2022-09-26T01:31:29.150Z,15.79
2022-09-26T01:34:22.691Z,15.78
2022-09-26T01:37:14.468Z,15.77
2022-09-26T01:40:12.367Z,15.79
2022-09-26T01:43:10.049Z,15.76
2022-09-26T01:46:00.879Z,15.74
2022-09-26T01:48:31.185Z,15.76
2022-09-26T01:51:22.047Z,15.77
2022-09-26T01:53:57.868Z,15.75
2022-09-26T01:56:27.569Z,15.73
2022-09-26T01:59:00.176Z,15.74
2022-09-26T02:01:28.559Z,15.70
2022-09-26T02:03:57.004Z,15.74
2022-09-26T02:06:48.708Z,15.76
2022-09-26T02:09:17.552Z,15.75
2022-09-26T02:11:45.924Z,15.74
2022-09-26T02:14:25.621Z,15.75
2022-09-26T02:16:54.986Z,15.75
2022-09-26T02:19:24.314Z,15.75
2022-09-26T02:21:51.201Z,15.73
2022-09-26T02:24:18.372Z,15.74
2022-09-26T02:26:45.256Z,15.72
2022-09-26T02:29:12.624Z,15.75
2022-09-26T02:31:52.329Z,15.73
2022-09-26T02:34:19.197Z,15.73
2022-09-26T02:36:46.388Z,15.70
2022-09-26T02:39:13.320Z,15.72
2022-09-26T02:41:48.349Z,15.73
2022-09-26T02:44:21.288Z,15.71
2022-09-26T02:46:56.888Z,15.71
2022-09-26T02:49:45.450Z,15.70
2022-09-26T02:52:39.624Z,15.69
2022-09-26T02:55:28.071Z,15.69
2022-09-26T02:58:04.092Z,15.64
2022-09-26T03:00:45.223Z,15.67
2022-09-26T03:03:22.705Z,15.69
2022-09-26T03:05:51.360Z,15.70
2022-09-26T03:08:23.392Z,15.66
2022-09-26T03:10:50.419Z,15.62
2022-09-26T03:13:17.277Z,15.63
2022-09-26T03:15:46.297Z,15.63
2022-09-26T03:18:21.040Z,15.62
2022-09-26T03:20:48.071Z,15.64
2022-09-26T03:23:15.095Z,15.64
2022-09-26T03:25:41.851Z,15.64
2022-09-26T03:28:10.544Z,15.62
2022-09-26T03:30:38.477Z,15.57
2022-09-26T03:33:05.313Z,15.62
2022-09-26T03:35:32.175Z,15.58
2022-09-26T03:37:59.174Z,15.62
2022-09-26T03:40:26.595Z,15.61
2022-09-26T03:42:53.484Z,15.60
2022-09-26T03:45:21.194Z,15.63
2022-09-26T03:47:48.095Z,15.59
2022-09-26T03:50:15.110Z,15.61
2022-09-26T03:52:42.207Z,15.57
2022-09-26T03:55:09.303Z,15.59
2022-09-26T03:57:36.115Z,15.58
2022-09-26T04:00:04.294Z,15.60
2022-09-26T04:02:31.136Z,15.60
2022-09-26T04:04:57.979Z,15.57
2022-09-26T04:07:25.012Z,15.56
2022-09-26T04:09:52.142Z,15.56
2022-09-26T04:12:20.095Z,15.55
2022-09-26T04:14:47.143Z,15.54
2022-09-26T04:17:13.922Z,15.54
2022-09-26T04:19:40.665Z,15.56
2022-09-26T04:22:10.630Z,15.56
2022-09-26T04:24:37.512Z,15.53
2022-09-26T04:27:04.926Z,15.58
2022-09-26T04:29:31.983Z,15.55
2022-09-26T04:31:58.821Z,15.55
2022-09-26T04:34:27.522Z,15.57
2022-09-26T04:36:55.189Z,15.55
2022-09-26T04:39:22.377Z,15.59
2022-09-26T04:41:49.146Z,15.60
2022-09-26T04:44:16.169Z,15.57
2022-09-26T04:46:42.938Z,15.53
2022-09-26T04:49:09.830Z,15.52
2022-09-26T04:51:37.548Z,15.53
2022-09-26T04:54:04.481Z,15.54
2022-09-26T04:56:31.761Z,15.52
2022-09-26T04:58:59.366Z,15.52
2022-09-26T05:01:26.321Z,15.53
2022-09-26T05:03:55.584Z,15.53
2022-09-26T05:06:22.608Z,15.54
2022-09-26T05:08:49.422Z,15.52
2022-09-26T05:11:17.176Z,15.53
2022-09-26T05:13:45.002Z,15.54
2022-09-26T05:16:13.183Z,15.53
2022-09-26T05:18:41.017Z,15.52
2022-09-26T05:21:08.284Z,15.51
2022-09-26T05:23:53.721Z,15.53
2022-09-26T05:26:40.857Z,15.49
2022-09-26T05:29:09.055Z,15.53
2022-09-26T05:31:37.776Z,15.51
2022-09-26T05:34:06.085Z,15.55
2022-09-26T05:36:32.969Z,15.53
2022-09-26T05:39:00.341Z,15.53
2022-09-26T05:41:29.624Z,15.52
2022-09-26T05:43:56.475Z,15.51
2022-09-26T05:46:23.792Z,15.52
2022-09-26T05:48:50.748Z,15.53
2022-09-26T05:51:18.434Z,15.54
2022-09-26T05:53:45.994Z,15.54
2022-09-26T05:56:18.497Z,15.53
2022-09-26T05:58:46.341Z,15.54
2022-09-26T06:01:15.450Z,15.55
2022-09-26T06:03:43.221Z,15.56
2022-09-26T06:06:12.651Z,15.56
2022-09-26T06:08:39.570Z,15.55
2022-09-26T06:11:08.355Z,15.57
2022-09-26T06:13:35.639Z,15.59
2022-09-26T06:16:06.512Z,15.57
2022-09-26T06:18:37.090Z,15.59
2022-09-26T06:21:04.519Z,15.61
2022-09-26T06:23:32.207Z,15.61
2022-09-26T06:25:59.200Z,15.59
2022-09-26T06:28:27.050Z,15.62
2022-09-26T06:30:54.365Z,15.64
2022-09-26T06:33:21.602Z,15.66
2022-09-26T06:35:48.438Z,15.65
2022-09-26T06:38:15.185Z,15.65
2022-09-26T06:40:42.354Z,15.67
2022-09-26T06:43:09.348Z,15.66
2022-09-26T06:45:36.182Z,15.68
2022-09-26T06:48:03.363Z,15.65
2022-09-26T06:50:30.157Z,15.67
2022-09-26T06:52:57.009Z,15.68
2022-09-26T06:55:24.033Z,15.73
2022-09-26T06:57:50.905Z,15.70
2022-09-26T07:00:18.072Z,15.68
2022-09-26T07:02:52.461Z,15.73
2022-09-26T07:05:20.358Z,15.75
2022-09-26T07:07:49.084Z,15.76
2022-09-26T07:10:18.649Z,15.78
2022-09-26T07:12:47.220Z,15.82
2022-09-26T07:15:19.679Z,15.84
2022-09-26T07:17:48.229Z,15.86
2022-09-26T07:20:19.569Z,15.87
2022-09-26T07:22:46.798Z,15.88
2022-09-26T07:25:13.962Z,15.91
2022-09-26T07:27:41.049Z,15.92
2022-09-26T07:30:09.129Z,15.93
2022-09-26T07:32:39.393Z,15.97
2022-09-26T07:35:07.145Z,16.00
2022-09-26T07:37:34.006Z,16.03
2022-09-26T07:40:02.013Z,16.04
2022-09-26T07:42:29.076Z,16.06
2022-09-26T07:48:01.434Z,16.14
2022-09-26T07:50:28.238Z,16.18
2022-09-26T07:52:56.304Z,16.30
2022-09-26T07:55:26.221Z,16.32
2022-09-26T07:57:53.024Z,16.39
2022-09-26T08:00:21.492Z,16.35
2022-09-26T08:02:48.895Z,16.46
2022-09-26T08:05:17.711Z,16.50
2022-09-26T08:07:45.051Z,16.55
2022-09-26T08:10:22.317Z,16.57
2022-09-26T08:12:49.824Z,16.61
2022-09-26T08:15:16.846Z,16.65
2022-09-26T08:17:43.633Z,16.68
2022-09-26T08:20:11.088Z,16.72
2022-09-26T08:22:38.026Z,16.75
2022-09-26T08:25:06.938Z,16.79
2022-09-26T08:27:34.312Z,16.83
2022-09-26T08:30:04.271Z,16.86
2022-09-26T08:32:32.287Z,16.91
2022-09-26T08:35:00.276Z,16.94
2022-09-26T08:37:28.067Z,16.97
2022-09-26T08:39:54.941Z,17.01
2022-09-26T08:42:43.832Z,17.03
2022-09-26T08:45:57.460Z,17.08
2022-09-26T08:48:34.284Z,17.16
2022-09-26T08:51:28.374Z,17.22
2022-09-26T08:54:01.707Z,17.27
2022-09-26T08:56:35.049Z,17.34
2022-09-26T08:59:03.587Z,17.40
2022-09-26T09:01:31.339Z,17.48
2022-09-26T09:04:13.536Z,17.54
2022-09-26T09:06:40.597Z,17.62
2022-09-26T09:09:07.512Z,17.67
2022-09-26T09:11:58.012Z,17.77
2022-09-26T09:15:14.086Z,17.84
2022-09-26T09:18:12.625Z,17.94
2022-09-26T09:21:06.263Z,17.99
2022-09-26T09:24:12.398Z,18.07
2022-09-26T09:29:34.896Z,18.24
2022-09-26T09:32:02.088Z,18.30
2022-09-26T09:34:32.153Z,18.37
2022-09-26T09:37:01.619Z,18.43
2022-09-26T09:39:34.343Z,18.48
2022-09-26T09:42:16.687Z,18.59
2022-09-26T09:44:49.153Z,18.63
2022-09-26T09:47:17.264Z,18.75
2022-09-26T09:49:46.465Z,18.82
2022-09-26T09:52:36.117Z,18.90
2022-09-26T09:55:28.180Z,18.98
2022-09-26T09:57:57.980Z,19.08
2022-09-26T10:00:25.219Z,19.15
2022-09-26T10:02:56.608Z,19.28
2022-09-26T10:05:28.498Z,19.38
2022-09-26T10:07:58.242Z,19.46
2022-09-26T10:10:40.154Z,19.47
2022-09-26T10:13:11.118Z,19.62
2022-09-26T10:15:43.550Z,19.59
2022-09-26T10:18:30.581Z,19.72
2022-09-26T10:20:59.324Z,19.78
2022-09-26T10:23:28.341Z,19.85
2022-09-26T10:26:00.143Z,19.90
2022-09-26T10:28:35.988Z,19.94
2022-09-26T10:31:08.407Z,20.06
2022-09-26T10:33:37.164Z,20.16
2022-09-26T10:36:17.143Z,20.21
2022-09-26T10:39:16.169Z,20.28
2022-09-26T10:41:45.031Z,20.42
2022-09-26T10:44:26.042Z,20.38
2022-09-26T10:46:56.563Z,20.38
2022-09-26T10:49:31.541Z,20.44
2022-09-26T10:52:16.100Z,20.46
2022-09-26T10:54:55.130Z,20.53
2022-09-26T10:57:28.133Z,20.52
2022-09-26T10:59:56.298Z,20.60
2022-09-26T11:02:23.707Z,20.58
2022-09-26T11:05:15.359Z,20.66
2022-09-26T11:07:43.963Z,20.75
2022-09-26T11:10:12.959Z,20.75
2022-09-26T11:12:55.234Z,20.79
2022-09-26T11:15:23.423Z,20.89
2022-09-26T11:17:52.297Z,20.94
2022-09-26T11:20:43.743Z,20.91
2022-09-26T11:23:22.979Z,20.98
2022-09-26T11:26:18.561Z,20.97
2022-09-26T11:29:02.063Z,21.12
2022-09-26T11:31:30.695Z,21.15
2022-09-26T11:33:59.426Z,21.19
2022-09-26T11:36:46.945Z,21.23
2022-09-26T11:39:31.079Z,21.27
2022-09-26T11:42:35.562Z,21.35
2022-09-26T11:45:29.504Z,21.35
2022-09-26T11:48:06.569Z,21.42
2022-09-26T11:50:40.041Z,21.45
2022-09-26T11:53:34.286Z,21.55
2022-09-26T11:56:16.300Z,21.55
2022-09-26T11:58:54.998Z,21.58
2022-09-26T12:01:54.908Z,21.58
2022-09-26T12:04:37.358Z,21.69
2022-09-26T12:07:10.350Z,21.70
2022-09-26T12:09:53.697Z,21.69
2022-09-26T12:12:29.055Z,21.72
2022-09-26T12:14:58.529Z,21.72
2022-09-26T12:17:48.703Z,21.82
2022-09-26T12:20:51.530Z,21.76
2022-09-26T12:23:29.897Z,21.82
2022-09-26T12:26:34.804Z,21.96
2022-09-26T12:29:18.891Z,21.96
2022-09-26T12:31:52.842Z,22.05
2022-09-26T12:34:27.173Z,21.99
2022-09-26T12:37:21.379Z,21.99
2022-09-26T12:40:09.719Z,21.92
2022-09-26T12:43:07.275Z,22.05
2022-09-26T12:45:40.650Z,22.02
2022-09-26T12:48:21.082Z,21.97
2022-09-26T12:51:06.296Z,21.94
2022-09-26T12:53:37.979Z,21.93
2022-09-26T12:56:26.728Z,21.94
2022-09-26T12:58:59.614Z,21.91
2022-09-26T13:01:43.617Z,22.02
2022-09-26T13:04:44.694Z,22.06
2022-09-26T13:07:20.936Z,22.09
2022-09-26T13:10:13.064Z,22.00
2022-09-26T13:12:46.005Z,21.99
2022-09-26T13:15:17.442Z,21.83
2022-09-26T13:17:47.109Z,21.70
2022-09-26T13:20:27.149Z,21.77
2022-09-26T13:23:02.470Z,21.70
2022-09-26T13:25:29.871Z,21.88
2022-09-26T13:28:05.152Z,21.92
2022-09-26T13:30:35.872Z,21.90
2022-09-26T13:33:26.220Z,21.82
2022-09-26T13:35:54.263Z,21.84
2022-09-26T13:38:35.959Z,21.86
2022-09-26T13:41:40.690Z,21.84
2022-09-26T13:44:10.131Z,21.84
2022-09-26T13:47:13.418Z,21.87
2022-09-26T13:49:55.627Z,21.84
2022-09-26T13:52:52.947Z,21.81
2022-09-26T13:55:21.744Z,21.86
2022-09-26T13:58:04.164Z,21.91
2022-09-26T14:00:31.472Z,21.91
2022-09-26T14:03:10.975Z,21.89
2022-09-26T14:05:41.086Z,21.85
2022-09-26T14:08:45.563Z,21.86
2022-09-26T14:11:19.640Z,21.89
2022-09-26T14:13:47.151Z,21.88
2022-09-26T14:16:34.835Z,21.89
2022-09-26T14:19:11.551Z,21.88
2022-09-26T14:22:02.501Z,21.86
2022-09-26T14:24:38.422Z,21.85
2022-09-26T14:27:11.580Z,21.86
2022-09-26T14:29:38.458Z,21.87
2022-09-26T14:32:09.781Z,21.85
2022-09-26T14:34:43.589Z,21.84
2022-09-26T14:37:19.455Z,21.81
2022-09-26T14:39:46.541Z,21.85
2022-09-26T14:42:24.383Z,21.85
2022-09-26T14:44:56.104Z,21.84
2022-09-26T14:47:23.143Z,21.82
2022-09-26T14:49:55.202Z,21.80
2022-09-26T14:52:22.266Z,21.80
2022-09-26T14:54:49.127Z,21.77
2022-09-26T14:57:25.154Z,21.75
2022-09-26T14:59:52.390Z,21.72
2022-09-26T15:02:40.665Z,21.70
2022-09-26T15:05:12.594Z,21.71
2022-09-26T15:07:45.343Z,21.71
2022-09-26T15:10:13.293Z,21.69
2022-09-26T15:12:44.937Z,21.66
2022-09-26T15:15:39.161Z,21.65
2022-09-26T15:18:15.237Z,21.63
2022-09-26T15:20:50.002Z,21.62
2022-09-26T15:23:20.322Z,21.62
2022-09-26T15:25:47.181Z,21.61
2022-09-26T15:28:14.021Z,21.60
2022-09-26T15:30:41.960Z,21.58
2022-09-26T15:33:16.624Z,21.57
2022-09-26T15:35:53.982Z,21.55
2022-09-26T15:38:20.834Z,21.53
2022-09-26T15:41:04.218Z,21.49
2022-09-26T15:43:34.536Z,21.47
2022-09-26T15:46:07.333Z,21.46
2022-09-26T15:48:36.569Z,21.43
2022-09-26T15:51:08.932Z,21.42
2022-09-26T15:53:39.602Z,21.39
2022-09-26T15:56:19.346Z,21.38
2022-09-26T15:58:53.449Z,21.35
2022-09-26T16:01:21.880Z,21.32
2022-09-26T16:03:55.856Z,21.27
2022-09-26T16:06:27.100Z,21.24
2022-09-26T16:09:00.529Z,21.21
2022-09-26T16:11:27.761Z,21.15
2022-09-26T16:13:56.495Z,21.10
2022-09-26T16:16:31.975Z,21.05
2022-09-26T16:19:01.283Z,21.04
2022-09-26T16:21:32.383Z,20.97
2022-09-26T16:24:01.394Z,20.93
2022-09-26T16:26:32.529Z,20.92
2022-09-26T16:29:00.267Z,20.90
2022-09-26T16:31:39.642Z,20.87
2022-09-26T16:34:21.259Z,20.83
2022-09-26T16:36:48.430Z,20.80
2022-09-26T16:39:21.257Z,20.74
2022-09-26T16:42:12.421Z,20.72
2022-09-26T16:44:41.162Z,20.63
2022-09-26T16:47:33.286Z,20.61
2022-09-26T16:50:31.290Z,20.55
2022-09-26T16:52:58.373Z,20.51
2022-09-26T16:55:25.728Z,20.45
2022-09-26T16:57:57.567Z,20.41
2022-09-26T17:00:51.951Z,20.38
2022-09-26T17:03:22.740Z,20.32
2022-09-26T17:05:50.223Z,20.32
2022-09-26T17:08:17.817Z,20.23
2022-09-26T17:10:45.540Z,20.21
2022-09-26T17:13:17.657Z,20.10
2022-09-26T17:15:45.760Z,20.12
2022-09-26T17:18:12.860Z,20.09
2022-09-26T17:20:40.957Z,19.95
2022-09-26T17:23:34.855Z,19.94
2022-09-26T17:25:57.823Z,19.88
2022-09-26T17:28:37.552Z,19.78
2022-09-26T17:31:07.710Z,19.79
2022-09-26T17:33:40.680Z,19.71
2022-09-26T17:36:11.035Z,19.68
2022-09-26T17:38:41.763Z,19.68
2022-09-26T17:41:12.590Z,19.68
2022-09-26T17:43:39.639Z,19.62
2022-09-26T17:46:12.716Z,19.53
2022-09-26T17:48:42.880Z,19.53
2022-09-26T17:51:12.008Z,19.54
2022-09-26T17:53:44.157Z,19.40
2022-09-26T17:56:13.360Z,19.48
2022-09-26T17:58:42.160Z,19.40
2022-09-26T18:01:16.082Z,19.31
2022-09-26T18:03:43.710Z,19.37
2022-09-26T18:06:10.528Z,19.29
2022-09-26T18:08:37.364Z,19.23
2022-09-26T18:11:10.982Z,19.20
2022-09-26T18:13:39.419Z,19.20
2022-09-26T18:16:07.302Z,19.15
2022-09-26T18:18:34.631Z,19.14
2022-09-26T18:21:04.200Z,19.03
2022-09-26T18:23:44.339Z,18.98
2022-09-26T18:26:42.175Z,18.95
2022-09-26T18:29:10.523Z,18.94
2022-09-26T18:31:39.313Z,18.89
2022-09-26T18:34:06.538Z,18.84
2022-09-26T18:36:33.572Z,18.83
2022-09-26T18:39:00.673Z,18.79
2022-09-26T18:41:28.824Z,18.70
2022-09-26T18:43:58.798Z,18.65
2022-09-26T18:46:25.794Z,18.65
2022-09-26T18:48:55.072Z,18.57
2022-09-26T18:51:22.400Z,18.54
2022-09-26T18:53:49.278Z,18.47
2022-09-26T18:56:35.335Z,18.49
2022-09-26T18:59:02.491Z,18.38
2022-09-26T19:01:37.888Z,18.40
2022-09-26T19:04:06.694Z,18.32
2022-09-26T19:06:41.719Z,18.29
2022-09-26T19:09:32.262Z,18.26
2022-09-26T19:11:59.314Z,18.28
2022-09-26T19:14:30.403Z,18.22
2022-09-26T19:16:57.607Z,18.11
2022-09-26T19:19:24.750Z,18.11
2022-09-26T19:21:52.346Z,18.03
2022-09-26T19:24:22.607Z,18.02
2022-09-26T19:26:54.805Z,18.02
2022-09-26T19:29:32.764Z,17.96
2022-09-26T19:32:00.184Z,17.87
2022-09-26T19:34:32.567Z,17.84
2022-09-26T19:37:01.494Z,17.83
2022-09-26T19:39:28.664Z,17.74
2022-09-26T19:41:55.789Z,17.71
2022-09-26T19:44:24.362Z,17.72
2022-09-26T19:46:51.520Z,17.66
2022-09-26T19:49:18.891Z,17.66
2022-09-26T19:51:46.126Z,17.58
2022-09-26T19:54:18.143Z,17.52
2022-09-26T19:56:45.728Z,17.52
2022-09-26T19:59:13.855Z,17.50
2022-09-26T20:01:41.491Z,17.43
2022-09-26T20:04:20.369Z,17.38
2022-09-26T20:06:47.544Z,17.34
2022-09-26T20:09:18.671Z,17.30
2022-09-26T20:11:45.712Z,17.30
2022-09-26T20:14:24.868Z,17.30
2022-09-26T20:16:56.791Z,17.23
2022-09-26T20:19:35.387Z,17.18
2022-09-26T20:22:03.561Z,17.19
2022-09-26T20:24:31.599Z,17.13
2022-09-26T20:26:59.736Z,17.08
2022-09-26T20:29:26.546Z,17.03
2022-09-26T20:31:53.740Z,17.03
2022-09-26T20:34:20.601Z,16.99
2022-09-26T20:36:51.333Z,16.98
2022-09-26T20:39:24.845Z,16.90
2022-09-26T20:41:51.780Z,16.87
2022-09-26T20:44:27.003Z,16.82
2022-09-26T20:46:58.276Z,16.83
2022-09-26T20:49:31.760Z,16.77
2022-09-26T20:51:58.811Z,16.78
2022-09-26T20:54:30.939Z,16.68
2022-09-26T20:56:58.632Z,16.68
2022-09-26T20:59:25.850Z,16.63
2022-09-26T21:01:53.192Z,16.60
2022-09-26T21:04:21.952Z,16.57
2022-09-26T21:06:49.003Z,16.53
2022-09-26T21:09:17.039Z,16.56
2022-09-26T21:11:45.298Z,16.47
2022-09-26T21:14:12.126Z,16.48
2022-09-26T21:16:44.210Z,16.45
2022-09-26T21:19:14.600Z,16.43
2022-09-26T21:21:41.460Z,16.36
2022-09-26T21:24:12.771Z,16.31
2022-09-26T21:26:39.835Z,16.33
2022-09-26T21:29:06.627Z,16.29
2022-09-26T21:31:33.999Z,16.27
2022-09-26T21:34:01.241Z,16.23
2022-09-26T21:36:35.176Z,16.22
2022-09-26T21:39:02.485Z,16.19
2022-09-26T21:41:29.571Z,16.17
2022-09-26T21:44:01.651Z,16.14
2022-09-26T21:46:29.094Z,16.12
2022-09-26T21:48:55.965Z,16.07
2022-09-26T21:51:24.511Z,16.04
2022-09-26T21:53:56.335Z,15.99
2022-09-26T21:56:25.898Z,15.99
2022-09-26T21:58:53.037Z,15.96
2022-09-26T22:01:20.411Z,15.98
2022-09-26T22:03:47.304Z,15.91
2022-09-26T22:06:14.367Z,15.89
2022-09-26T22:08:41.178Z,15.84
2022-09-26T22:11:09.085Z,15.84
2022-09-26T22:13:37.741Z,15.76
2022-09-26T22:16:11.348Z,15.75
2022-09-26T22:18:41.842Z,15.74
2022-09-26T22:21:09.458Z,15.73
2022-09-26T22:23:36.402Z,15.70
2022-09-26T22:26:03.734Z,15.65
2022-09-26T22:28:30.729Z,15.65
2022-09-26T22:31:01.891Z,15.64
2022-09-26T22:33:29.124Z,15.58
2022-09-26T22:35:56.046Z,15.59
2022-09-26T22:38:22.926Z,15.58
2022-09-26T22:41:00.061Z,15.53
2022-09-26T22:43:28.242Z,15.54
2022-09-26T22:46:06.723Z,15.51
2022-09-26T22:48:34.230Z,15.50
2022-09-26T22:51:01.417Z,15.44
2022-09-26T22:53:28.369Z,15.45
2022-09-26T22:55:55.647Z,15.44
2022-09-26T22:58:23.148Z,15.38
2022-09-26T23:00:50.069Z,15.34
2022-09-26T23:03:17.545Z,15.31
2022-09-26T23:05:47.033Z,15.29
2022-09-26T23:08:14.013Z,15.31
2022-09-26T23:10:48.405Z,15.33
2022-09-26T23:13:15.449Z,15.27
2022-09-26T23:15:42.377Z,15.25
2022-09-26T23:18:09.838Z,15.25
2022-09-26T23:20:46.005Z,15.23
2022-09-26T23:23:13.303Z,15.17
2022-09-26T23:25:47.958Z,15.18
2022-09-26T23:28:15.119Z,15.18
2022-09-26T23:30:42.382Z,15.16
2022-09-26T23:33:09.431Z,15.13
2022-09-26T23:35:36.426Z,15.12
2022-09-26T23:38:05.391Z,15.07
2022-09-26T23:40:32.901Z,15.04
2022-09-26T23:42:59.954Z,15.06
2022-09-26T23:45:27.213Z,15.06
2022-09-26T23:47:54.020Z,15.00
2022-09-26T23:50:20.862Z,15.00
2022-09-26T23:52:47.935Z,14.95
2022-09-26T23:55:14.999Z,14.94
2022-09-26T23:57:41.830Z,14.95
